createdAt,value
2022-10-09T00:01:08.615Z,16.63
2022-10-09T00:03:36.416Z,17.55
2022-10-09T00:06:03.560Z,14.40
2022-10-09T00:08:30.438Z,21.13
2022-10-09T00:10:57.327Z,15.52
2022-10-09T00:13:24.366Z,7.38
2022-10-09T00:15:51.551Z,15.35
2022-10-09T00:18:19.315Z,24.00
2022-10-09T00:20:47.087Z,12.38
2022-10-09T00:23:16.652Z,20.58
2022-10-09T00:25:57.565Z,10.05
2022-10-09T00:28:26.146Z,13.93
2022-10-09T00:30:53.724Z,14.45
2022-10-09T00:33:20.837Z,13.35
2022-10-09T00:35:48.276Z,14.05
2022-10-09T00:38:15.524Z,11.20
2022-10-09T00:40:42.769Z,19.15
2022-10-09T00:43:19.838Z,16.95
2022-10-09T00:45:55.879Z,17.08
2022-10-09T00:48:23.126Z,22.63
2022-10-09T00:50:56.061Z,17.40
2022-10-09T00:53:24.724Z,20.10
2022-10-09T00:55:52.444Z,14.98
2022-10-09T00:58:19.512Z,31.15
2022-10-09T01:00:46.429Z,14.00
2022-10-09T01:03:13.386Z,20.77
2022-10-09T01:05:58.007Z,16.50
2022-10-09T01:08:48.998Z,19.30
2022-10-09T01:11:42.276Z,20.48
2022-10-09T01:14:39.288Z,10.85
2022-10-09T01:17:17.751Z,16.27
2022-10-09T01:19:56.453Z,12.93
2022-10-09T01:22:58.372Z,16.27
2022-10-09T01:25:36.797Z,10.50
2022-10-09T01:28:06.985Z,23.52
2022-10-09T01:30:35.084Z,16.58
2022-10-09T01:33:02.374Z,14.55
2022-10-09T01:35:29.852Z,15.05
2022-10-09T01:37:57.400Z,14.52
2022-10-09T01:40:25.528Z,23.55
2022-10-09T01:42:52.445Z,19.42
2022-10-09T01:45:19.352Z,14.35
2022-10-09T01:47:46.451Z,22.85
2022-10-09T01:50:26.369Z,14.88
2022-10-09T01:52:56.463Z,21.63
2022-10-09T01:55:40.039Z,12.50
2022-10-09T01:58:10.049Z,19.55
2022-10-09T02:00:40.075Z,10.88
2022-10-09T02:03:10.077Z,18.05
2022-10-09T02:05:38.071Z,15.02
2022-10-09T02:08:04.966Z,16.73
2022-10-09T02:10:32.834Z,13.55
2022-10-09T02:13:00.999Z,22.75
2022-10-09T02:15:32.281Z,12.82
2022-10-09T02:18:04.383Z,15.40
2022-10-09T02:20:34.960Z,14.23
2022-10-09T02:23:05.697Z,17.35
2022-10-09T02:25:32.957Z,15.15
2022-10-09T02:28:00.458Z,14.73
2022-10-09T02:30:30.413Z,24.45
2022-10-09T02:32:57.596Z,16.25
2022-10-09T02:35:24.485Z,23.63
2022-10-09T02:37:51.345Z,30.45
2022-10-09T02:40:18.188Z,28.30
2022-10-09T02:42:44.978Z,57.38
2022-10-09T02:45:11.875Z,83.63
2022-10-09T02:47:38.765Z,97.10
2022-10-09T02:50:06.254Z,117.82
2022-10-09T02:52:33.094Z,100.70
2022-10-09T02:54:59.935Z,101.65
2022-10-09T02:57:26.829Z,76.82
2022-10-09T02:59:53.716Z,20.00
2022-10-09T03:02:20.697Z,40.40
2022-10-09T03:04:47.602Z,63.55
2022-10-09T03:07:14.449Z,22.35
2022-10-09T03:09:41.256Z,47.22
2022-10-09T03:12:08.186Z,29.30
2022-10-09T03:14:35.234Z,12.95
2022-10-09T03:17:02.099Z,14.88
2022-10-09T03:19:28.887Z,18.80
2022-10-09T03:21:55.746Z,9.95
2022-10-09T03:24:22.597Z,9.65
2022-10-09T03:26:49.533Z,17.70
2022-10-09T03:29:16.448Z,13.75
2022-10-09T03:31:52.876Z,15.95
2022-10-09T03:34:20.328Z,10.15
2022-10-09T03:36:47.298Z,12.73
2022-10-09T03:39:14.203Z,15.85
2022-10-09T03:41:41.065Z,10.88
2022-10-09T03:44:08.001Z,11.73
2022-10-09T03:46:35.020Z,12.07
2022-10-09T03:49:01.945Z,16.30
2022-10-09T03:51:28.776Z,11.88
2022-10-09T03:53:55.567Z,19.60
2022-10-09T03:56:22.808Z,27.38
2022-10-09T03:58:49.616Z,20.42
2022-10-09T04:01:16.513Z,19.02
2022-10-09T04:03:43.441Z,13.77
2022-10-09T04:06:10.488Z,29.75
2022-10-09T04:08:37.289Z,26.73
2022-10-09T04:11:04.254Z,43.97
2022-10-09T04:13:31.139Z,24.10
2022-10-09T04:15:58.335Z,18.40
2022-10-09T04:18:25.498Z,20.90
2022-10-09T04:20:53.970Z,26.00
2022-10-09T04:23:21.780Z,29.98
2022-10-09T04:25:48.729Z,26.77
2022-10-09T04:28:15.715Z,26.25
2022-10-09T04:30:42.692Z,20.65
2022-10-09T04:33:12.967Z,25.35
2022-10-09T04:35:50.727Z,14.57
2022-10-09T04:38:17.571Z,15.35
2022-10-09T04:40:44.519Z,23.48
2022-10-09T04:43:11.343Z,29.27
2022-10-09T04:45:41.795Z,19.75
2022-10-09T04:48:08.751Z,15.23
2022-10-09T04:50:39.410Z,13.63
2022-10-09T04:53:06.417Z,19.13
2022-10-09T04:55:33.322Z,11.43
2022-10-09T04:58:00.118Z,15.05
2022-10-09T05:00:27.018Z,18.42
2022-10-09T05:02:53.866Z,20.58
2022-10-09T05:05:20.767Z,12.70
2022-10-09T05:07:47.658Z,24.70
2022-10-09T05:10:14.572Z,14.88
2022-10-09T05:12:41.400Z,9.43
2022-10-09T05:15:08.648Z,12.25
2022-10-09T05:17:35.542Z,15.07
2022-10-09T05:20:02.448Z,16.15
2022-10-09T05:22:29.340Z,7.35
2022-10-09T05:24:56.210Z,15.55
2022-10-09T05:27:23.077Z,10.65
2022-10-09T05:29:49.958Z,17.45
2022-10-09T05:32:16.931Z,7.25
2022-10-09T05:34:43.771Z,13.88
2022-10-09T05:37:10.665Z,17.15
2022-10-09T05:39:38.455Z,26.48
2022-10-09T05:42:05.667Z,13.63
2022-10-09T05:44:32.609Z,13.63
2022-10-09T05:46:59.523Z,17.67
2022-10-09T05:49:26.395Z,22.27
2022-10-09T05:51:54.743Z,13.82
2022-10-09T05:54:21.746Z,18.80
2022-10-09T05:56:48.646Z,10.68
2022-10-09T05:59:19.647Z,21.60
2022-10-09T06:01:49.777Z,34.17
2022-10-09T06:04:22.288Z,31.48
2022-10-09T06:06:50.201Z,18.83
2022-10-09T06:09:18.741Z,19.10
2022-10-09T06:11:46.040Z,14.88
2022-10-09T06:14:13.709Z,60.42
2022-10-09T06:16:42.864Z,52.00
2022-10-09T06:19:14.712Z,25.38
2022-10-09T06:21:42.251Z,34.13
2022-10-09T06:24:11.148Z,30.73
2022-10-09T06:26:38.031Z,46.75
2022-10-09T06:29:04.938Z,35.70
2022-10-09T06:31:32.832Z,30.67
2022-10-09T06:34:01.278Z,31.17
2022-10-09T06:36:30.380Z,24.60
2022-10-09T06:38:59.421Z,26.67
2022-10-09T06:41:27.824Z,14.25
2022-10-09T06:43:59.770Z,24.52
2022-10-09T06:46:29.458Z,30.35
2022-10-09T06:48:56.791Z,37.63
2022-10-09T06:51:24.359Z,11.35
2022-10-09T06:53:55.285Z,22.95
2022-10-09T06:56:23.369Z,39.00
2022-10-09T06:58:50.466Z,21.90
2022-10-09T07:01:24.099Z,14.05
2022-10-09T07:03:56.358Z,9.10
2022-10-09T07:06:25.696Z,12.90
2022-10-09T07:08:55.299Z,12.80
2022-10-09T07:11:30.817Z,22.75
2022-10-09T07:14:00.481Z,27.48
2022-10-09T07:16:32.276Z,27.60
2022-10-09T07:19:03.928Z,26.60
2022-10-09T07:21:30.914Z,33.25
2022-10-09T07:24:00.897Z,16.08
2022-10-09T07:26:29.939Z,16.50
2022-10-09T07:28:59.191Z,28.38
2022-10-09T07:31:26.228Z,34.83
2022-10-09T07:33:54.935Z,122.18
2022-10-09T07:36:22.289Z,45.70
2022-10-09T07:38:53.985Z,11.90
2022-10-09T07:41:22.588Z,17.80
2022-10-09T07:43:49.543Z,39.78
2022-10-09T07:46:18.868Z,31.95
2022-10-09T07:48:46.450Z,30.38
2022-10-09T07:51:17.867Z,11.77
2022-10-09T07:53:45.415Z,11.68
2022-10-09T07:56:26.789Z,17.40
2022-10-09T07:58:56.138Z,19.10
2022-10-09T08:01:23.618Z,22.85
2022-10-09T08:03:50.721Z,38.78
2022-10-09T08:06:18.290Z,49.47
2022-10-09T08:08:45.783Z,40.30
2022-10-09T08:11:16.902Z,17.05
2022-10-09T08:13:44.927Z,23.63
2022-10-09T08:16:12.118Z,15.07
2022-10-09T08:18:39.333Z,10.52
2022-10-09T08:21:17.436Z,14.80
2022-10-09T08:23:45.368Z,13.13
2022-10-09T08:26:14.353Z,18.88
2022-10-09T08:28:42.143Z,11.48
2022-10-09T08:31:13.374Z,11.98
2022-10-09T08:33:40.785Z,8.65
2022-10-09T08:36:09.202Z,11.57
2022-10-09T08:38:52.187Z,13.63
2022-10-09T08:41:42.803Z,10.02
2022-10-09T08:44:29.708Z,14.75
2022-10-09T08:47:02.523Z,10.27
2022-10-09T08:50:02.099Z,6.65
2022-10-09T08:52:59.252Z,10.73
2022-10-09T08:55:33.511Z,15.52
2022-10-09T08:58:07.116Z,15.73
2022-10-09T09:00:55.583Z,12.43
2022-10-09T09:03:52.972Z,13.10
2022-10-09T09:06:38.630Z,11.57
2022-10-09T09:09:37.497Z,11.55
2022-10-09T09:12:20.877Z,10.23
2022-10-09T09:17:38.954Z,12.83
2022-10-09T09:20:22.654Z,7.57
2022-10-09T09:22:50.800Z,12.48
2022-10-09T09:25:20.959Z,17.92
2022-10-09T09:27:48.460Z,11.45
2022-10-09T09:30:41.671Z,14.27
2022-10-09T09:33:11.701Z,9.00
2022-10-09T09:36:06.391Z,12.75
2022-10-09T09:38:33.429Z,11.88
2022-10-09T09:41:00.436Z,12.93
2022-10-09T09:43:27.567Z,12.30
2022-10-09T09:45:56.769Z,9.30
2022-10-09T09:48:26.516Z,6.85
2022-10-09T09:51:10.326Z,11.77
2022-10-09T09:53:42.841Z,13.10
2022-10-09T09:56:10.282Z,12.57
2022-10-09T09:58:49.351Z,15.55
2022-10-09T10:01:27.706Z,12.20
2022-10-09T10:03:57.573Z,11.50
2022-10-09T10:06:28.694Z,7.78
2022-10-09T10:09:12.175Z,13.88
2022-10-09T10:11:52.987Z,12.05
2022-10-09T10:14:20.099Z,8.65
2022-10-09T10:16:49.457Z,9.85
2022-10-09T10:19:28.163Z,9.70
2022-10-09T10:22:06.611Z,11.05
2022-10-09T10:24:53.287Z,6.47
2022-10-09T10:27:22.877Z,12.57
2022-10-09T10:29:51.259Z,6.18
2022-10-09T10:32:25.787Z,9.63
2022-10-09T10:35:23.189Z,9.05
2022-10-09T10:37:59.334Z,7.88
2022-10-09T10:40:37.701Z,4.78
2022-10-09T10:43:10.621Z,9.35
2022-10-09T10:45:53.032Z,6.60
2022-10-09T10:48:29.142Z,5.40
2022-10-09T10:50:58.986Z,8.43
2022-10-09T10:53:38.365Z,10.45
2022-10-09T10:56:10.573Z,5.63
2022-10-09T10:58:55.507Z,8.30
2022-10-09T11:01:44.222Z,5.75
2022-10-09T11:04:22.926Z,6.90
2022-10-09T11:06:58.800Z,9.18
2022-10-09T11:09:31.580Z,6.95
2022-10-09T11:12:43.298Z,4.18
2022-10-09T11:15:27.592Z,6.28
2022-10-09T11:17:59.885Z,8.60
2022-10-09T11:20:32.736Z,7.85
2022-10-09T11:23:39.186Z,6.05
2022-10-09T11:26:09.183Z,6.78
2022-10-09T11:28:43.204Z,5.88
2022-10-09T11:31:14.315Z,5.57
2022-10-09T11:33:51.426Z,6.60
2022-10-09T11:36:34.342Z,8.98
2022-10-09T11:39:09.254Z,4.38
2022-10-09T11:41:36.529Z,7.40
2022-10-09T11:44:22.006Z,6.30
2022-10-09T11:47:10.073Z,4.50
2022-10-09T11:49:49.565Z,6.18
2022-10-09T11:52:30.285Z,6.57
2022-10-09T11:55:23.796Z,4.05
2022-10-09T12:00:30.246Z,9.80
2022-10-09T12:03:00.016Z,3.95
2022-10-09T12:05:44.000Z,4.97
2022-10-09T12:08:19.225Z,4.90
2022-10-09T12:10:59.644Z,2.95
2022-10-09T12:13:42.111Z,8.02
2022-10-09T12:16:17.514Z,4.83
2022-10-09T12:18:47.479Z,6.35
2022-10-09T12:21:29.291Z,8.85
2022-10-09T12:23:56.381Z,5.18
2022-10-09T12:26:24.655Z,5.32
2022-10-09T12:28:55.723Z,8.27
2022-10-09T12:31:26.849Z,6.57
2022-10-09T12:34:00.589Z,3.88
2022-10-09T12:36:29.625Z,6.03
2022-10-09T12:38:56.876Z,4.78
2022-10-09T12:41:29.845Z,2.75
2022-10-09T12:46:32.830Z,4.53
2022-10-09T12:49:01.129Z,9.05
2022-10-09T12:51:30.533Z,4.40
2022-10-09T12:53:57.516Z,4.60
2022-10-09T12:56:33.028Z,4.93
2022-10-09T12:59:00.740Z,6.20
2022-10-09T13:01:27.951Z,5.00
2022-10-09T13:04:00.267Z,5.15
2022-10-09T13:06:47.458Z,6.43
2022-10-09T13:09:39.947Z,5.43
2022-10-09T13:12:16.171Z,5.07
2022-10-09T13:14:55.511Z,7.95
2022-10-09T13:17:37.946Z,8.02
2022-10-09T13:20:17.170Z,5.73
2022-10-09T13:23:01.654Z,3.17
2022-10-09T13:25:44.561Z,2.17
2022-10-09T13:28:19.361Z,3.83
2022-10-09T13:30:46.565Z,3.88
2022-10-09T13:33:16.090Z,6.10
2022-10-09T13:35:43.114Z,2.80
2022-10-09T13:38:14.531Z,5.35
2022-10-09T13:40:41.940Z,6.00
2022-10-09T13:43:17.780Z,5.78
2022-10-09T13:45:44.661Z,4.32
2022-10-09T13:48:11.561Z,6.43
2022-10-09T13:50:38.518Z,2.83
2022-10-09T13:53:05.498Z,6.38
2022-10-09T13:55:32.364Z,4.45
2022-10-09T13:57:59.243Z,4.10
2022-10-09T14:00:26.229Z,4.55
2022-10-09T14:02:53.081Z,5.00
2022-10-09T14:05:21.757Z,5.95
2022-10-09T14:07:48.781Z,2.58
2022-10-09T14:10:18.243Z,2.70
2022-10-09T14:12:47.474Z,5.20
2022-10-09T14:15:14.634Z,4.68
2022-10-09T14:17:41.504Z,7.68
2022-10-09T14:20:08.906Z,4.13
2022-10-09T14:22:35.791Z,4.07
2022-10-09T14:25:02.950Z,4.10
2022-10-09T14:27:29.867Z,3.42
2022-10-09T14:29:57.402Z,3.53
2022-10-09T14:32:24.403Z,5.35
2022-10-09T14:34:51.228Z,3.80
2022-10-09T14:37:36.830Z,4.25
2022-10-09T14:40:05.964Z,2.67
2022-10-09T14:42:32.851Z,3.72
2022-10-09T14:44:59.670Z,3.95
2022-10-09T14:47:26.525Z,2.97
2022-10-09T14:49:53.391Z,3.92
2022-10-09T14:52:20.314Z,4.28
2022-10-09T14:54:47.135Z,6.32
2022-10-09T14:57:14.431Z,6.80
2022-10-09T14:59:41.461Z,9.05
2022-10-09T15:02:16.494Z,5.95
2022-10-09T15:04:43.347Z,6.07
2022-10-09T15:07:10.326Z,4.45
2022-10-09T15:09:37.278Z,7.20
2022-10-09T15:12:04.249Z,6.85
2022-10-09T15:14:31.032Z,6.18
2022-10-09T15:16:58.015Z,5.18
2022-10-09T15:19:25.125Z,4.18
2022-10-09T15:21:51.930Z,5.22
2022-10-09T15:24:18.849Z,5.32
2022-10-09T15:26:45.932Z,4.50
2022-10-09T15:29:12.868Z,5.18
2022-10-09T15:31:41.106Z,4.47
2022-10-09T15:34:08.921Z,3.40
2022-10-09T15:36:37.934Z,4.57
2022-10-09T15:39:07.416Z,4.43
2022-10-09T15:41:39.268Z,7.32
2022-10-09T15:44:08.864Z,7.10
2022-10-09T15:46:36.037Z,4.60
2022-10-09T15:49:02.970Z,3.28
2022-10-09T15:51:33.176Z,5.82
2022-10-09T15:54:03.764Z,10.32
2022-10-09T15:56:30.791Z,3.90
2022-10-09T15:58:58.599Z,5.35
2022-10-09T16:01:26.207Z,9.32
2022-10-09T16:03:53.269Z,4.63
2022-10-09T16:06:22.448Z,3.72
2022-10-09T16:08:49.373Z,5.70
2022-10-09T16:11:20.182Z,9.43
2022-10-09T16:13:50.338Z,6.32
2022-10-09T16:16:20.280Z,8.02
2022-10-09T16:18:48.192Z,4.88
2022-10-09T16:21:18.180Z,4.40
2022-10-09T16:23:45.539Z,5.38
2022-10-09T16:26:17.064Z,8.60
2022-10-09T16:28:44.480Z,3.45
2022-10-09T16:31:28.343Z,6.00
2022-10-09T16:33:56.468Z,7.10
2022-10-09T16:36:23.357Z,6.40
2022-10-09T16:38:50.173Z,5.93
2022-10-09T16:41:19.132Z,12.27
2022-10-09T16:43:48.551Z,5.55
2022-10-09T16:46:27.741Z,3.72
2022-10-09T16:48:56.255Z,7.13
2022-10-09T16:51:26.252Z,3.63
2022-10-09T16:53:54.827Z,7.03
2022-10-09T16:56:24.807Z,6.30
2022-10-09T16:58:55.607Z,10.80
2022-10-09T17:01:22.714Z,11.93
2022-10-09T17:03:49.693Z,14.38
2022-10-09T17:06:20.290Z,12.13
2022-10-09T17:08:48.213Z,6.60
2022-10-09T17:11:16.931Z,6.80
2022-10-09T17:13:44.948Z,19.00
2022-10-09T17:16:18.450Z,10.40
2022-10-09T17:18:46.458Z,7.35
2022-10-09T17:21:14.204Z,5.15
2022-10-09T17:23:41.160Z,9.07
2022-10-09T17:26:10.147Z,8.55
2022-10-09T17:28:37.059Z,11.68
2022-10-09T17:31:09.528Z,12.82
2022-10-09T17:33:42.789Z,15.60
2022-10-09T17:36:10.665Z,14.48
2022-10-09T17:38:37.841Z,14.43
2022-10-09T17:41:08.826Z,12.57
2022-10-09T17:43:35.701Z,11.55
2022-10-09T17:46:02.717Z,11.52
2022-10-09T17:48:31.261Z,16.17
2022-10-09T17:50:58.879Z,17.65
2022-10-09T17:53:26.462Z,10.55
2022-10-09T17:55:55.186Z,7.82
2022-10-09T17:58:23.119Z,6.97
2022-10-09T18:00:50.846Z,9.77
2022-10-09T18:03:18.499Z,22.55
2022-10-09T18:05:48.070Z,33.53
2022-10-09T18:08:18.509Z,25.77
2022-10-09T18:10:46.172Z,11.63
2022-10-09T18:13:13.048Z,12.27
2022-10-09T18:15:43.926Z,6.78
2022-10-09T18:18:11.474Z,69.30
2022-10-09T18:20:39.481Z,31.60
2022-10-09T18:23:07.356Z,13.50
2022-10-09T18:25:34.633Z,10.55
2022-10-09T18:28:01.604Z,13.52
2022-10-09T18:30:28.412Z,16.95
2022-10-09T18:32:55.830Z,14.85
2022-10-09T18:35:22.748Z,14.68
2022-10-09T18:37:49.797Z,17.38
2022-10-09T18:40:16.895Z,9.48
2022-10-09T18:42:43.775Z,20.08
2022-10-09T18:45:13.627Z,12.90
2022-10-09T18:47:40.868Z,8.40
2022-10-09T18:50:09.970Z,8.55
2022-10-09T18:52:38.001Z,10.77
2022-10-09T18:55:06.634Z,14.27
2022-10-09T18:57:34.291Z,10.38
2022-10-09T19:00:02.490Z,10.70
2022-10-09T19:02:29.754Z,16.25
2022-10-09T19:04:56.673Z,12.18
2022-10-09T19:07:24.166Z,20.63
2022-10-09T19:09:56.303Z,28.95
2022-10-09T19:14:51.341Z,24.67
2022-10-09T19:17:18.317Z,17.35
2022-10-09T19:19:45.262Z,14.88
2022-10-09T19:22:16.454Z,16.38
2022-10-09T19:24:44.365Z,10.37
2022-10-09T19:27:11.418Z,17.00
2022-10-09T19:29:38.478Z,20.58
2022-10-09T19:32:05.370Z,16.10
2022-10-09T19:37:29.708Z,15.50
2022-10-09T19:39:57.045Z,9.30
2022-10-09T19:42:24.919Z,10.65
2022-10-09T19:44:51.986Z,18.13
2022-10-09T19:47:19.271Z,14.13
2022-10-09T19:49:46.141Z,11.38
2022-10-09T19:52:13.086Z,11.02
2022-10-09T19:54:40.327Z,9.65
2022-10-09T19:57:09.856Z,7.75
2022-10-09T19:59:36.834Z,12.38
2022-10-09T20:02:04.267Z,9.75
2022-10-09T20:04:31.277Z,25.30
2022-10-09T20:06:58.229Z,15.35
2022-10-09T20:09:25.925Z,12.50
2022-10-09T20:11:52.763Z,11.40
2022-10-09T20:14:20.557Z,9.52
2022-10-09T20:16:47.464Z,10.10
2022-10-09T20:19:24.940Z,7.45
2022-10-09T20:21:51.848Z,7.90
2022-10-09T20:24:18.720Z,8.52
2022-10-09T20:26:45.626Z,7.50
2022-10-09T20:29:12.534Z,6.32
2022-10-09T20:31:40.396Z,4.63
2022-10-09T20:34:07.432Z,5.68
2022-10-09T20:36:36.477Z,3.28
2022-10-09T20:39:06.803Z,7.45
2022-10-09T20:41:34.323Z,7.43
2022-10-09T20:44:05.491Z,7.50
2022-10-09T20:46:34.481Z,8.07
2022-10-09T20:49:12.386Z,10.05
2022-10-09T20:51:39.771Z,8.38
2022-10-09T20:54:08.143Z,8.38
2022-10-09T20:56:35.724Z,5.35
2022-10-09T20:59:02.872Z,6.53
2022-10-09T21:01:29.870Z,5.55
2022-10-09T21:03:59.091Z,3.50
2022-10-09T21:06:26.529Z,8.57
2022-10-09T21:08:53.490Z,8.90
2022-10-09T21:11:20.894Z,2.95
2022-10-09T21:13:49.119Z,6.43
2022-10-09T21:16:19.131Z,5.18
2022-10-09T21:18:46.461Z,4.80
2022-10-09T21:21:15.675Z,12.13
2022-10-09T21:23:43.478Z,2.70
2022-10-09T21:26:17.407Z,5.70
2022-10-09T21:28:44.776Z,4.28
2022-10-09T21:31:14.996Z,6.35
2022-10-09T21:33:41.851Z,6.75
2022-10-09T21:36:32.895Z,4.97
2022-10-09T21:39:00.021Z,4.20
2022-10-09T21:41:27.180Z,3.47
2022-10-09T21:43:54.046Z,1.88
2022-10-09T21:46:21.065Z,3.53
2022-10-09T21:48:53.691Z,4.85
2022-10-09T21:51:20.668Z,3.95
2022-10-09T21:53:49.284Z,5.10
2022-10-09T21:56:17.488Z,5.28
2022-10-09T21:58:48.721Z,3.17
2022-10-09T22:01:16.098Z,5.93
2022-10-09T22:03:43.105Z,3.55
2022-10-09T22:06:19.208Z,5.85
2022-10-09T22:08:52.377Z,9.23
2022-10-09T22:11:20.019Z,4.07
2022-10-09T22:13:46.880Z,3.53
2022-10-09T22:16:15.680Z,4.82
2022-10-09T22:18:43.004Z,4.53
2022-10-09T22:21:13.462Z,2.75
2022-10-09T22:23:40.895Z,7.57
2022-10-09T22:26:13.530Z,4.05
2022-10-09T22:28:40.670Z,3.63
2022-10-09T22:31:20.122Z,3.63
2022-10-09T22:33:54.281Z,8.95
2022-10-09T22:36:26.099Z,4.10
2022-10-09T22:38:54.609Z,9.25
2022-10-09T22:41:22.889Z,3.15
2022-10-09T23:38:33.768Z,3.25
2022-10-09T23:41:08.497Z,3.28
2022-10-09T23:43:39.738Z,3.50
2022-10-09T23:46:08.567Z,4.10
2022-10-09T23:48:36.190Z,3.40
2022-10-09T23:51:05.200Z,5.07
2022-10-09T23:53:32.402Z,1.75
2022-10-09T23:55:59.261Z,4.93
2022-10-09T23:58:26.152Z,4.47
